Time;durP1;ratioP1;P1;durP2;ratioP2;P2;SDS_P1;SDS_P2;PMS_P1;PMS_P2;Temp;Humidity;BMP_temperature;BMP_pressure;BME280_temperature;BME280_humidity;BME280_pressure;Samples;Min_cycle;Max_cycle;Signal;HPM_P1;HPM_P2
2022/05/05 08:04:14;;;;;;;7.95;7.00;;;17.90;51.00;;;;;;6270125;23;20224;-91
2022/05/05 08:06:43;;;;;;;8.18;6.80;;;18.00;53.70;;;;;;6256492;23;20263;-90
2022/05/05 08:13:46;;;;;;;6.35;5.75;;;18.70;51.80;;;;;;6173677;23;20158;-93
2022/05/05 08:20:17;;;;;;;8.90;7.13;;;19.60;44.70;;;;;;6176622;23;20167;-93
2022/05/05 08:23:06;;;;;;;10.20;6.35;;;19.70;40.60;;;;;;6173759;23;20171;-93
2022/05/05 08:28:30;;;;;;;8.95;7.38;;;20.50;41.70;;;;;;6124189;23;20178;-92
2022/05/05 08:30:58;;;;;;;7.63;6.25;;;20.60;38.70;;;;;;6134663;23;20172;-93
2022/05/05 08:55:13;;;;;;;10.88;7.68;;;20.50;37.40;;;;;;6230825;23;20204;-92
2022/05/05 08:57:52;;;;;;;9.52;7.70;;;20.40;35.20;;;;;;6050608;23;20209;-93
2022/05/05 09:03:08;;;;;;;8.25;7.43;;;20.90;32.80;;;;;;6123390;23;20251;-93
2022/05/05 09:05:48;;;;;;;9.80;7.60;;;20.90;32.80;;;;;;6160503;23;20173;-93
2022/05/05 09:08:31;;;;;;;7.90;6.70;;;20.80;32.80;;;;;;6244455;23;20625;-92
2022/05/05 09:11:01;;;;;;;8.73;7.80;;;21.50;33.30;;;;;;6244359;23;20165;-91
2022/05/05 09:13:31;;;;;;;7.57;6.78;;;22.00;33.40;;;;;;6245361;23;20200;-90
2022/05/05 09:16:10;;;;;;;7.35;6.72;;;22.60;31.70;;;;;;6245857;23;20790;-90
2022/05/05 09:18:40;;;;;;;7.80;7.03;;;22.80;30.50;;;;;;6246544;23;20254;-87
2022/05/05 09:21:34;;;;;;;9.00;7.45;;;22.20;30.40;;;;;;6245805;23;20224;-92
2022/05/05 09:24:40;;;;;;;10.38;7.57;;;21.50;31.60;;;;;;6246699;23;20212;-91
2022/05/05 09:27:54;;;;;;;8.93;6.72;;;20.90;32.80;;;;;;6248231;23;20604;-92
2022/05/05 09:30:24;;;;;;;7.85;6.65;;;20.90;32.80;;;;;;6247495;23;20591;-92
2022/05/05 09:32:58;;;;;;;10.05;6.93;;;21.50;33.30;;;;;;6219085;23;20227;-83
2022/05/05 09:35:25;;;;;;;9.73;7.03;;;22.20;28.30;;;;;;6246856;23;20180;-83
2022/05/05 09:38:10;;;;;;;8.07;6.90;;;22.40;27.60;;;;;;6246505;23;20158;-83
2022/05/05 09:41:02;;;;;;;7.18;6.47;;;21.90;29.50;;;;;;6245908;23;20199;-85
2022/05/05 09:43:35;;;;;;;8.68;6.60;;;22.60;27.10;;;;;;6244641;23;20479;-83
2022/05/05 09:46:30;;;;;;;7.53;6.18;;;22.50;27.80;;;;;;6247168;23;20228;-81
2022/05/05 09:49:13;;;;;;;7.57;6.05;;;23.40;24.30;;;;;;6245308;23;20165;-83
2022/05/05 09:57:39;;;;;;;8.43;6.45;;;24.70;21.90;;;;;;6245181;23;20157;-81
2022/05/05 09:57:58;;;;;;;7.40;4.95;;;24.60;20.50;;;;;;6245768;23;20156;-83
2022/05/05 10:00:47;;;;;;;8.65;5.50;;;24.80;21.10;;;;;;6244571;23;20192;-83
2022/05/05 10:06:25;;;;;;;5.38;4.88;;;23.10;23.30;;;;;;6245693;23;20210;-83
2022/05/05 10:08:54;;;;;;;7.68;5.63;;;23.50;25.60;;;;;;6245766;23;20165;-81
2022/05/05 10:11:23;;;;;;;6.28;4.90;;;23.20;23.00;;;;;;6248591;23;20161;-81
2022/05/05 10:13:51;;;;;;;6.75;5.75;;;23.50;25.10;;;;;;6252081;23;20169;-83
2022/05/05 10:16:20;;;;;;;7.28;5.70;;;23.50;22.20;;;;;;6246996;23;20183;-82
2022/05/05 10:19:28;;;;;;;6.05;5.35;;;23.30;22.70;;;;;;6245425;23;20207;-81
2022/05/05 10:22:06;;;;;;;8.00;5.20;;;22.80;24.20;;;;;;6245092;23;20157;-81
2022/05/05 10:25:02;;;;;;;7.13;5.65;;;23.70;23.70;;;;;;6246245;23;20171;-85
2022/05/05 10:27:59;;;;;;;7.20;5.20;;;23.70;20.20;;;;;;6246877;23;20168;-81
2022/05/05 10:30:40;;;;;;;6.35;5.50;;;23.50;21.10;;;;;;6246997;23;20161;-82
2022/05/05 10:33:11;;;;;;;6.18;5.35;;;23.20;23.10;;;;;;6246606;23;20157;-81
2022/05/05 10:35:47;;;;;;;8.40;5.05;;;23.60;24.10;;;;;;6245664;23;20195;-82
2022/05/05 10:38:42;;;;;;;7.40;4.13;;;24.30;21.90;;;;;;6246538;23;20161;-83
2022/05/05 10:41:35;;;;;;;5.40;4.60;;;24.90;20.00;;;;;;6246539;23;20480;-82
2022/05/05 10:44:27;;;;;;;6.07;4.13;;;25.60;18.40;;;;;;6246066;23;20625;-80
2022/05/05 10:47:22;;;;;;;4.47;4.13;;;26.70;15.60;;;;;;6244444;23;20169;-81
2022/05/05 10:49:54;;;;;;;5.70;4.55;;;27.30;17.60;;;;;;6245335;23;20163;-81
2022/05/05 10:52:30;;;;;;;4.65;4.20;;;26.50;16.10;;;;;;6244203;23;20192;-80
2022/05/05 10:55:25;;;;;;;9.93;5.00;;;25.50;17.00;;;;;;6245125;23;20188;-81
2022/05/05 10:57:55;;;;;;;5.05;4.30;;;25.20;19.00;;;;;;6245971;23;20157;-80
2022/05/05 11:00:23;;;;;;;5.80;4.57;;;25.20;18.90;;;;;;6245405;23;20577;-80
2022/05/05 11:06:18;;;;;;;6.38;4.80;;;24.50;19.80;;;;;;6243683;23;20172;-83
2022/05/05 11:08:54;;;;;;;6.53;5.93;;;23.50;21.80;;;;;;6246437;23;20631;-82
2022/05/05 11:11:42;;;;;;;7.30;5.15;;;22.80;22.60;;;;;;6247007;23;20160;-83
2022/05/05 11:23:12;;;;;;;6.38;4.60;;;21.30;26.70;;;;;;6195576;23;20693;-86
2022/05/05 11:25:54;;;;;;;5.82;4.20;;;21.10;27.40;;;;;;6195752;23;20182;-85
2022/05/05 11:35:56;;;;;;;5.57;4.90;;;20.20;30.40;;;;;;6199907;23;20263;-86
2022/05/05 11:39:28;;;;;;;8.05;4.97;;;20.60;30.20;;;;;;6199996;23;20178;-86
2022/05/05 11:52:32;;;;;;;5.65;4.85;;;20.60;28.60;;;;;;6110207;23;20164;-86
2022/05/05 12:11:43;;;;;;;6.75;6.00;;;20.80;28.90;;;;;;6020290;23;20173;-85
2022/05/05 12:24:22;;;;;;;7.97;7.18;;;20.50;29.80;;;;;;6164072;23;20518;-85
2022/05/05 12:30:55;;;;;;;8.82;6.78;;;21.00;28.70;;;;;;6169158;23;20214;-89
2022/05/05 12:40:17;;;;;;;7.60;6.90;;;21.40;25.70;;;;;;6179405;23;20169;-85
2022/05/05 12:43:00;;;;;;;7.57;6.88;;;21.30;25.40;;;;;;6261146;23;20624;-84
2022/05/05 13:02:13;;;;;;;7.60;6.50;;;21.70;25.40;;;;;;6263803;23;20243;-85
2022/05/05 13:04:49;;;;;;;6.65;6.05;;;21.70;24.80;;;;;;6260795;23;20173;-86
2022/05/05 13:07:20;;;;;;;6.32;5.75;;;21.60;24.30;;;;;;6259325;23;20195;-85
2022/05/05 13:10:22;;;;;;;7.72;6.95;;;21.80;24.50;;;;;;6259657;23;20204;-84
2022/05/05 13:13:41;;;;;;;8.10;7.30;;;21.60;23.10;;;;;;6260472;23;20172;-86
2022/05/05 13:16:43;;;;;;;7.18;6.13;;;21.30;25.30;;;;;;6259221;23;20208;-86
2022/05/05 13:19:36;;;;;;;;;;;;;;;;;;;;;
2022/05/05 13:32:02;;;;;;;6.30;5.75;;;21.00;23.60;;;;;;6254908;23;20203;-86
2022/05/05 13:34:34;;;;;;;5.23;4.73;;;21.00;24.00;;;;;;6232298;23;20200;-84
2022/05/05 13:37:31;;;;;;;6.93;5.03;;;21.00;25.80;;;;;;6258856;23;20177;-85
2022/05/05 13:43:29;;;;;;;6.20;4.60;;;21.10;23.90;;;;;;6248593;23;20205;-85
2022/05/05 13:46:20;;;;;;;4.50;4.10;;;21.30;21.50;;;;;;6260802;23;20244;-85
2022/05/05 13:49:30;;;;;;;5.05;4.03;;;21.50;21.50;;;;;;6260785;23;20478;-85
2022/05/05 13:52:52;;;;;;;4.18;3.80;;;21.50;20.90;;;;;;6268852;23;20181;-89
2022/05/05 13:55:42;;;;;;;4.05;3.65;;;21.50;21.20;;;;;;6259948;23;20185;-85
2022/05/05 13:58:40;;;;;;;4.88;3.50;;;21.30;22.50;;;;;;6234715;23;20240;-85
2022/05/05 14:17:35;;;;;;;5.97;5.47;;;21.10;23.30;;;;;;6261041;23;20165;-84
2022/05/05 14:20:50;;;;;;;5.20;4.70;;;21.10;22.70;;;;;;6259457;23;20161;-84
2022/05/05 14:26:41;;;;;;;5.50;5.00;;;20.90;23.40;;;;;;6258680;23;20165;-84
2022/05/05 14:30:04;;;;;;;5.78;4.90;;;20.60;25.10;;;;;;6259315;23;20165;-83
2022/05/05 14:32:59;;;;;;;5.28;4.75;;;20.70;24.00;;;;;;6260866;23;20231;-83
2022/05/05 14:35:50;;;;;;;7.07;6.03;;;20.70;23.60;;;;;;6261325;23;20181;-86
2022/05/05 14:38:52;;;;;;;8.93;6.00;;;20.70;24.00;;;;;;6185218;23;20170;-86
2022/05/05 14:41:42;;;;;;;6.53;5.93;;;20.70;25.40;;;;;;6261899;23;20197;-85
2022/05/05 14:44:49;;;;;;;7.13;6.30;;;20.60;26.70;;;;;;6260746;23;20166;-88
2022/05/05 14:51:32;;;;;;;6.38;5.75;;;20.40;27.60;;;;;;6264709;23;20242;-88
2022/05/05 14:57:48;;;;;;;7.78;5.78;;;20.20;28.20;;;;;;6168050;23;20197;-84
2022/05/05 15:03:37;;;;;;;6.65;6.05;;;20.20;27.40;;;;;;6167500;23;20186;-84
2022/05/05 15:09:47;;;;;;;7.70;6.10;;;20.40;27.10;;;;;;6164899;23;20178;-84
2022/05/05 15:15:43;;;;;;;6.90;6.20;;;20.20;27.00;;;;;;6168334;23;20205;-86
2022/05/05 15:21:26;;;;;;;6.78;5.70;;;20.00;28.10;;;;;;6160607;23;20185;-84
2022/05/05 15:23:59;;;;;;;6.45;5.78;;;20.10;27.50;;;;;;6166691;23;20204;-84
2022/05/05 15:26:26;;;;;;;6.38;5.78;;;20.10;28.10;;;;;;6167211;23;20219;-84
2022/05/05 15:35:56;;;;;;;5.88;5.10;;;19.90;28.70;;;;;;6259837;23;20211;-86
2022/05/05 15:39:04;;;;;;;5.90;5.40;;;19.90;28.50;;;;;;6257455;23;20199;-88
2022/05/05 15:42:07;;;;;;;11.15;5.88;;;19.90;27.80;;;;;;6231973;23;20193;-85
2022/05/05 15:49:11;;;;;;;;;;;;;;;;;;;;;
2022/05/05 15:52:40;;;;;;;4.80;4.40;;;19.70;29.10;;;;;;6097139;23;20208;-88
2022/05/05 15:59:07;;;;;;;4.85;4.03;;;19.60;27.90;;;;;;6025651;23;20166;-85
